createdAt,value
2023-03-29T00:00:49.865Z,76.69
2023-03-29T00:03:17.446Z,76.61
2023-03-29T00:05:44.799Z,76.91
2023-03-29T00:08:14.597Z,76.86
2023-03-29T00:10:42.380Z,76.81
2023-03-29T00:13:08.927Z,77.01
2023-03-29T00:18:03.213Z,77.10
2023-03-29T00:20:29.856Z,77.06
2023-03-29T00:22:56.420Z,77.18
2023-03-29T00:25:22.935Z,77.26
2023-03-29T00:27:49.567Z,77.22
2023-03-29T00:30:16.401Z,77.35
2023-03-29T00:32:43.064Z,77.28
2023-03-29T00:35:09.853Z,77.33
2023-03-29T00:37:36.916Z,77.26
2023-03-29T00:40:08.225Z,77.21
2023-03-29T00:42:36.472Z,77.21
2023-03-29T00:45:18.910Z,77.11
2023-03-29T00:47:54.188Z,77.08
2023-03-29T00:50:29.537Z,77.21
2023-03-29T00:53:09.795Z,77.24
2023-03-29T00:55:58.195Z,77.29
2023-03-29T00:58:36.670Z,77.17
2023-03-29T01:01:10.907Z,77.08
2023-03-29T01:03:47.336Z,77.15
2023-03-29T01:06:17.853Z,77.13
2023-03-29T01:08:50.915Z,77.10
2023-03-29T01:11:24.710Z,77.12
2023-03-29T01:13:53.635Z,76.99
2023-03-29T01:16:22.052Z,77.00
2023-03-29T01:18:48.718Z,77.11
2023-03-29T01:21:32.625Z,77.03
2023-03-29T01:24:33.022Z,77.09
2023-03-29T01:27:12.603Z,76.84
2023-03-29T01:29:45.648Z,76.68
2023-03-29T01:32:18.134Z,76.40
2023-03-29T01:34:56.607Z,76.29
2023-03-29T01:37:36.385Z,76.09
2023-03-29T01:40:05.275Z,76.00
2023-03-29T01:42:58.648Z,76.16
2023-03-29T01:45:47.047Z,76.13
2023-03-29T01:48:29.360Z,76.21
2023-03-29T01:51:03.333Z,76.37
2023-03-29T01:53:43.118Z,76.36
2023-03-29T01:56:13.740Z,76.47
2023-03-29T01:58:45.139Z,76.35
2023-03-29T02:01:17.702Z,76.19
2023-03-29T02:03:49.889Z,76.24
2023-03-29T02:06:20.746Z,76.35
2023-03-29T02:08:48.077Z,76.35
2023-03-29T02:11:14.858Z,76.16
2023-03-29T02:13:41.576Z,76.03
2023-03-29T02:16:12.569Z,76.25
2023-03-29T02:18:42.750Z,76.20
2023-03-29T02:21:11.730Z,76.41
2023-03-29T02:23:45.314Z,76.10
2023-03-29T02:26:19.660Z,76.36
2023-03-29T02:28:46.169Z,76.19
2023-03-29T02:31:19.054Z,76.45
2023-03-29T02:33:53.920Z,76.57
2023-03-29T02:36:41.751Z,76.57
2023-03-29T02:39:10.506Z,76.67
2023-03-29T02:41:38.671Z,76.79
2023-03-29T02:44:10.911Z,76.88
2023-03-29T02:46:38.393Z,76.82
2023-03-29T02:49:05.295Z,76.80
2023-03-29T02:51:37.897Z,76.69
2023-03-29T02:54:20.776Z,76.84
2023-03-29T02:56:54.787Z,76.84
2023-03-29T02:59:22.627Z,76.77
2023-03-29T03:01:50.137Z,76.90
2023-03-29T03:04:22.801Z,76.86
2023-03-29T03:06:49.579Z,76.62
2023-03-29T03:09:16.324Z,76.52
2023-03-29T03:11:42.868Z,76.40
2023-03-29T03:14:09.498Z,76.01
2023-03-29T03:16:37.050Z,75.69
2023-03-29T03:19:06.989Z,75.24
2023-03-29T03:21:35.218Z,75.17
2023-03-29T03:24:02.017Z,75.13
2023-03-29T03:26:31.348Z,75.03
2023-03-29T03:28:58.309Z,75.05
2023-03-29T03:31:25.231Z,75.08
2023-03-29T03:33:54.687Z,75.03
2023-03-29T03:36:26.070Z,74.93
2023-03-29T03:38:53.314Z,74.76
2023-03-29T03:41:19.860Z,74.82
2023-03-29T03:43:48.941Z,74.67
2023-03-29T03:46:17.115Z,74.67
2023-03-29T03:48:44.519Z,74.79
2023-03-29T03:51:11.105Z,75.11
2023-03-29T03:53:38.019Z,74.89
2023-03-29T03:56:08.845Z,75.00
2023-03-29T03:58:38.541Z,74.92
2023-03-29T04:01:06.066Z,74.86
2023-03-29T04:03:32.631Z,74.89
2023-03-29T04:06:03.428Z,74.79
2023-03-29T04:08:30.349Z,74.68
2023-03-29T04:11:08.043Z,74.76
2023-03-29T04:13:34.500Z,74.51
2023-03-29T04:16:01.920Z,74.69
2023-03-29T04:18:28.686Z,74.83
2023-03-29T04:20:55.232Z,74.80
2023-03-29T04:23:24.745Z,74.81
2023-03-29T04:25:55.042Z,74.97
2023-03-29T04:28:24.374Z,74.75
2023-03-29T04:30:50.852Z,74.86
2023-03-29T04:33:17.484Z,74.47
2023-03-29T04:35:44.413Z,74.35
2023-03-29T04:38:11.425Z,74.36
2023-03-29T04:40:38.366Z,74.38
2023-03-29T04:43:05.084Z,74.38
2023-03-29T04:45:31.503Z,74.39
2023-03-29T04:48:02.450Z,74.34
2023-03-29T04:50:28.917Z,74.29
2023-03-29T04:52:55.674Z,74.20
2023-03-29T04:55:22.234Z,73.99
2023-03-29T04:57:48.790Z,73.80
2023-03-29T05:00:15.644Z,73.83
2023-03-29T05:02:46.084Z,73.82
2023-03-29T05:05:13.444Z,73.53
2023-03-29T05:07:42.967Z,73.64
2023-03-29T05:10:09.722Z,73.50
2023-03-29T05:12:36.830Z,73.45
2023-03-29T05:15:04.948Z,73.20
2023-03-29T05:17:36.146Z,73.17
2023-03-29T05:20:09.249Z,73.34
2023-03-29T05:22:36.469Z,73.39
2023-03-29T05:25:09.237Z,73.16
2023-03-29T05:27:35.743Z,72.92
2023-03-29T05:30:02.351Z,72.85
2023-03-29T05:32:29.046Z,72.81
2023-03-29T05:34:55.548Z,72.86
2023-03-29T05:37:22.025Z,72.70
2023-03-29T05:39:49.642Z,72.73
2023-03-29T05:42:16.131Z,72.77
2023-03-29T05:44:42.612Z,72.86
2023-03-29T05:47:09.139Z,72.36
2023-03-29T05:49:35.599Z,72.56
2023-03-29T05:52:02.487Z,72.60
2023-03-29T05:54:28.916Z,72.42
2023-03-29T05:56:55.439Z,72.53
2023-03-29T05:59:23.605Z,72.28
2023-03-29T06:01:50.237Z,72.12
2023-03-29T06:04:20.544Z,71.91
2023-03-29T06:06:48.573Z,71.56
2023-03-29T06:09:15.576Z,71.40
2023-03-29T06:11:41.907Z,71.22
2023-03-29T06:14:08.307Z,71.17
2023-03-29T06:16:35.073Z,70.83
2023-03-29T06:19:01.647Z,70.69
2023-03-29T06:21:28.548Z,70.56
2023-03-29T06:23:55.010Z,70.52
2023-03-29T06:26:21.630Z,69.87
2023-03-29T06:28:51.426Z,69.75
2023-03-29T06:31:19.850Z,68.88
2023-03-29T06:33:46.816Z,68.17
2023-03-29T06:36:16.150Z,68.31
2023-03-29T06:38:44.276Z,67.44
2023-03-29T06:41:13.514Z,67.29
2023-03-29T06:43:40.053Z,66.86
2023-03-29T06:46:11.811Z,67.21
2023-03-29T06:48:39.206Z,66.49
2023-03-29T06:51:06.005Z,66.40
2023-03-29T06:53:32.673Z,65.67
2023-03-29T06:55:59.703Z,65.52
2023-03-29T06:58:26.120Z,65.43
2023-03-29T07:00:53.843Z,65.71
2023-03-29T07:03:23.195Z,66.08
2023-03-29T07:05:51.986Z,65.74
2023-03-29T07:08:20.791Z,64.13
2023-03-29T07:10:52.759Z,63.49
2023-03-29T07:13:19.317Z,64.13
2023-03-29T07:15:48.204Z,64.18
2023-03-29T07:18:14.691Z,64.04
2023-03-29T07:20:42.547Z,64.53
2023-03-29T07:23:10.442Z,64.42
2023-03-29T07:25:38.324Z,64.13
2023-03-29T07:28:06.240Z,63.52
2023-03-29T07:30:32.951Z,62.43
2023-03-29T07:32:59.704Z,63.03
2023-03-29T07:35:27.617Z,63.38
2023-03-29T07:37:55.862Z,62.96
2023-03-29T07:40:26.287Z,62.48
2023-03-29T07:42:55.152Z,61.94
2023-03-29T07:45:26.087Z,62.00
2023-03-29T07:47:58.689Z,62.09
2023-03-29T07:50:26.120Z,62.46
2023-03-29T07:52:52.712Z,62.90
2023-03-29T07:55:22.316Z,63.10
2023-03-29T07:57:49.461Z,62.73
2023-03-29T08:00:17.220Z,63.40
2023-03-29T08:02:45.623Z,63.55
2023-03-29T08:05:14.064Z,63.74
2023-03-29T08:07:42.478Z,64.06
2023-03-29T08:10:11.009Z,64.26
2023-03-29T08:12:37.861Z,64.77
2023-03-29T08:15:05.500Z,64.85
2023-03-29T08:17:40.282Z,65.40
2023-03-29T08:20:12.453Z,65.96
2023-03-29T08:22:39.530Z,65.77
2023-03-29T08:27:47.077Z,66.30
2023-03-29T08:30:14.941Z,66.41
2023-03-29T08:32:41.677Z,66.04
2023-03-29T08:35:09.716Z,66.11
2023-03-29T08:37:37.286Z,66.05
2023-03-29T08:40:05.582Z,65.83
2023-03-29T08:42:49.188Z,65.82
2023-03-29T08:45:29.338Z,66.07
2023-03-29T08:48:04.485Z,65.99
2023-03-29T08:50:36.651Z,66.11
2023-03-29T08:53:15.504Z,66.27
2023-03-29T08:55:45.297Z,66.04
2023-03-29T08:58:17.084Z,66.09
2023-03-29T09:00:49.501Z,66.30
2023-03-29T09:03:40.956Z,66.38
2023-03-29T09:06:10.981Z,66.07
2023-03-29T09:08:41.092Z,65.98
2023-03-29T09:11:30.840Z,66.43
2023-03-29T09:14:12.224Z,66.46
2023-03-29T09:16:50.893Z,66.09
2023-03-29T09:19:42.315Z,65.82
2023-03-29T09:22:17.909Z,65.48
2023-03-29T09:25:03.285Z,65.65
2023-03-29T09:27:48.263Z,65.65
2023-03-29T09:30:30.716Z,64.95
2023-03-29T09:33:28.790Z,64.92
2023-03-29T09:36:16.344Z,65.09
2023-03-29T09:38:47.869Z,64.44
2023-03-29T09:41:29.552Z,64.82
2023-03-29T09:43:59.369Z,64.67
2023-03-29T09:46:34.344Z,64.51
2023-03-29T09:49:04.856Z,64.49
2023-03-29T09:51:34.370Z,64.64
2023-03-29T09:54:01.114Z,64.68
2023-03-29T09:56:29.073Z,65.46
2023-03-29T09:58:55.806Z,64.71
2023-03-29T10:01:22.299Z,64.44
2023-03-29T10:03:51.619Z,63.55
2023-03-29T10:06:21.435Z,63.24
2023-03-29T10:08:52.747Z,63.56
2023-03-29T10:11:28.869Z,63.49
2023-03-29T10:14:00.958Z,63.74
2023-03-29T10:16:39.130Z,63.83
2023-03-29T10:19:28.366Z,63.76
2023-03-29T10:21:55.482Z,63.43
2023-03-29T10:24:22.849Z,63.21
2023-03-29T10:26:56.204Z,62.93
2023-03-29T10:29:27.883Z,62.83
2023-03-29T10:31:54.931Z,62.88
2023-03-29T10:34:25.834Z,63.08
2023-03-29T10:37:01.183Z,63.01
2023-03-29T10:39:32.841Z,62.84
2023-03-29T10:42:01.262Z,62.13
2023-03-29T10:44:32.935Z,62.41
2023-03-29T10:47:20.349Z,62.14
2023-03-29T10:49:58.879Z,61.79
2023-03-29T10:52:25.825Z,61.77
2023-03-29T10:54:55.064Z,62.01
2023-03-29T10:57:37.455Z,61.77
2023-03-29T11:00:20.441Z,61.49
2023-03-29T11:03:06.085Z,61.30
2023-03-29T11:05:42.128Z,61.58
2023-03-29T11:08:31.870Z,61.67
2023-03-29T11:11:10.513Z,61.47
2023-03-29T11:14:01.577Z,61.74
2023-03-29T11:16:31.045Z,61.91
2023-03-29T11:19:23.286Z,62.04
2023-03-29T11:21:59.211Z,61.77
2023-03-29T11:24:27.728Z,62.13
2023-03-29T11:27:35.620Z,62.56
2023-03-29T11:30:08.151Z,62.39
2023-03-29T11:32:56.564Z,62.12
2023-03-29T11:35:36.378Z,62.12
2023-03-29T11:38:14.554Z,62.52
2023-03-29T11:41:09.365Z,62.09
2023-03-29T11:43:55.196Z,62.12
2023-03-29T11:46:40.195Z,61.07
2023-03-29T11:49:25.177Z,60.90
2023-03-29T11:52:07.012Z,59.77
2023-03-29T11:54:36.635Z,59.25
2023-03-29T11:57:18.565Z,59.53
2023-03-29T11:59:54.630Z,58.42
2023-03-29T12:02:33.771Z,58.31
2023-03-29T12:05:11.097Z,58.44
2023-03-29T12:08:05.135Z,58.92
2023-03-29T12:10:37.032Z,58.57
2023-03-29T12:13:08.169Z,58.56
2023-03-29T12:15:50.578Z,58.57
2023-03-29T12:18:29.216Z,59.25
2023-03-29T12:21:06.748Z,59.25
2023-03-29T12:23:34.083Z,59.18
2023-03-29T12:26:27.861Z,58.49
2023-03-29T12:29:16.311Z,58.77
2023-03-29T12:32:03.840Z,58.82
2023-03-29T12:35:12.037Z,57.77
2023-03-29T12:38:14.172Z,57.78
2023-03-29T12:40:56.531Z,57.90
2023-03-29T12:43:33.028Z,58.34
2023-03-29T12:46:08.742Z,57.20
2023-03-29T12:48:38.618Z,57.21
2023-03-29T12:51:10.723Z,57.07
2023-03-29T12:53:42.722Z,57.26
2023-03-29T12:56:12.519Z,57.64
2023-03-29T12:58:39.302Z,57.57
2023-03-29T13:01:07.758Z,57.16
2023-03-29T13:03:48.507Z,57.95
2023-03-29T13:06:30.327Z,55.86
2023-03-29T13:09:20.973Z,56.58
2023-03-29T13:11:57.159Z,56.91
2023-03-29T13:14:29.998Z,56.77
2023-03-29T13:17:17.917Z,57.20
2023-03-29T13:20:12.560Z,56.98
2023-03-29T13:22:51.726Z,56.11
2023-03-29T13:25:35.660Z,56.54
2023-03-29T13:28:11.469Z,56.70
2023-03-29T13:30:58.280Z,55.65
2023-03-29T13:33:48.861Z,55.80
2023-03-29T13:36:27.212Z,56.34
2023-03-29T13:38:55.555Z,55.40
2023-03-29T13:41:40.874Z,55.51
2023-03-29T13:44:22.339Z,56.06
2023-03-29T13:46:50.714Z,56.23
2023-03-29T13:49:31.058Z,57.04
2023-03-29T13:52:07.184Z,56.76
2023-03-29T13:54:42.860Z,56.21
2023-03-29T13:57:23.600Z,56.08
2023-03-29T14:00:28.648Z,55.93
2023-03-29T14:02:58.063Z,55.68
2023-03-29T14:05:32.325Z,56.54
2023-03-29T14:08:08.754Z,56.25
2023-03-29T14:10:40.756Z,56.66
2023-03-29T14:13:12.645Z,56.07
2023-03-29T14:15:50.574Z,56.70
2023-03-29T14:18:21.432Z,56.49
2023-03-29T14:20:50.831Z,56.54
2023-03-29T14:23:21.904Z,56.54
2023-03-29T14:25:48.402Z,56.48
2023-03-29T14:28:23.587Z,56.28
2023-03-29T14:30:52.600Z,56.67
2023-03-29T14:33:31.181Z,57.05
2023-03-29T14:36:00.433Z,57.28
2023-03-29T14:38:27.716Z,57.94
2023-03-29T14:40:59.501Z,58.62
2023-03-29T14:43:30.356Z,58.60
2023-03-29T14:45:58.540Z,58.95
2023-03-29T14:48:25.916Z,59.14
2023-03-29T14:50:52.794Z,58.80
2023-03-29T14:53:22.085Z,58.59
2023-03-29T14:55:52.261Z,57.84
2023-03-29T14:58:24.721Z,57.46
2023-03-29T15:00:52.959Z,57.81
2023-03-29T15:03:26.123Z,57.08
2023-03-29T15:06:02.983Z,57.84
2023-03-29T15:08:33.044Z,58.21
2023-03-29T15:10:59.960Z,58.06
2023-03-29T15:13:27.584Z,57.64
2023-03-29T15:18:34.440Z,58.08
2023-03-29T15:21:01.923Z,58.32
2023-03-29T15:23:37.160Z,59.06
2023-03-29T15:26:15.419Z,58.45
2023-03-29T15:28:48.845Z,58.49
2023-03-29T15:31:18.590Z,59.42
2023-03-29T15:33:45.858Z,59.99
2023-03-29T15:36:14.130Z,60.12
2023-03-29T15:38:44.954Z,59.90
2023-03-29T15:41:14.645Z,60.77
2023-03-29T15:43:41.691Z,61.07
2023-03-29T15:46:08.695Z,61.12
2023-03-29T15:48:35.453Z,60.86
2023-03-29T15:51:04.822Z,61.10
2023-03-29T15:53:33.387Z,60.88
2023-03-29T15:56:02.547Z,61.51
2023-03-29T15:58:31.701Z,61.99
2023-03-29T16:01:00.720Z,61.78
2023-03-29T16:03:27.421Z,61.66
2023-03-29T16:05:56.712Z,61.86
2023-03-29T16:08:25.049Z,62.41
2023-03-29T16:10:51.777Z,62.88
2023-03-29T16:13:18.538Z,62.89
2023-03-29T16:15:45.938Z,63.03
2023-03-29T16:18:12.527Z,63.41
2023-03-29T16:20:39.226Z,63.97
2023-03-29T16:23:11.465Z,64.34
2023-03-29T16:25:40.011Z,64.53
2023-03-29T16:28:08.678Z,64.44
2023-03-29T16:30:36.921Z,65.09
2023-03-29T16:33:06.337Z,64.59
2023-03-29T16:35:37.942Z,64.24
2023-03-29T16:38:05.013Z,64.05
2023-03-29T16:40:31.824Z,64.03
2023-03-29T16:42:58.424Z,64.15
2023-03-29T16:45:25.087Z,64.33
2023-03-29T16:47:51.882Z,64.39
2023-03-29T16:50:19.121Z,64.63
2023-03-29T16:52:48.381Z,64.61
2023-03-29T16:55:19.254Z,64.73
2023-03-29T16:57:47.715Z,64.98
2023-03-29T17:00:17.392Z,64.83
2023-03-29T17:02:44.680Z,64.98
2023-03-29T17:05:12.508Z,65.01
2023-03-29T17:07:39.568Z,65.48
2023-03-29T17:10:10.072Z,65.40
2023-03-29T17:12:36.715Z,65.17
2023-03-29T17:15:05.165Z,65.91
2023-03-29T17:17:31.914Z,65.63
2023-03-29T17:19:58.390Z,65.93
2023-03-29T17:22:25.302Z,66.00
2023-03-29T17:24:52.081Z,66.09
2023-03-29T17:27:18.596Z,65.99
2023-03-29T17:29:45.262Z,66.61
2023-03-29T17:32:11.891Z,66.18
2023-03-29T17:34:38.932Z,66.72
2023-03-29T17:37:05.466Z,67.07
2023-03-29T17:39:32.135Z,67.40
2023-03-29T17:41:58.762Z,67.10
2023-03-29T17:44:25.346Z,67.43
2023-03-29T17:46:51.924Z,66.96
2023-03-29T17:49:18.389Z,66.95
2023-03-29T17:51:44.951Z,67.12
2023-03-29T17:54:12.225Z,67.06
2023-03-29T17:56:38.699Z,67.16
2023-03-29T17:59:05.279Z,67.62
2023-03-29T18:01:31.891Z,67.68
2023-03-29T18:03:58.501Z,67.77
2023-03-29T18:06:25.095Z,67.79
2023-03-29T18:08:53.211Z,68.42
2023-03-29T18:11:22.970Z,68.44
2023-03-29T18:13:51.368Z,68.61
2023-03-29T18:16:18.694Z,68.73
2023-03-29T18:18:46.450Z,69.45
2023-03-29T18:21:14.634Z,69.58
2023-03-29T18:23:44.978Z,69.60
2023-03-29T18:26:12.235Z,69.93
2023-03-29T18:28:38.772Z,70.07
2023-03-29T18:31:05.941Z,70.08
2023-03-29T18:33:35.368Z,70.12
2023-03-29T18:36:05.089Z,70.17
2023-03-29T18:38:35.211Z,70.20
2023-03-29T18:41:05.242Z,69.97
2023-03-29T18:43:33.900Z,70.45
2023-03-29T18:46:00.495Z,70.17
2023-03-29T18:48:27.649Z,70.58
2023-03-29T18:50:58.153Z,71.16
2023-03-29T18:53:24.964Z,71.56
2023-03-29T18:55:51.476Z,71.83
2023-03-29T18:58:19.138Z,71.39
2023-03-29T19:00:45.946Z,71.53
2023-03-29T19:03:12.526Z,71.99
2023-03-29T19:05:39.822Z,72.08
2023-03-29T19:08:09.146Z,72.14
2023-03-29T19:10:36.781Z,72.31
2023-03-29T19:13:04.216Z,72.26
2023-03-29T19:15:32.342Z,72.07
2023-03-29T19:17:59.016Z,72.48
2023-03-29T19:20:25.599Z,72.17
2023-03-29T19:22:53.495Z,72.25
2023-03-29T19:25:20.347Z,72.03
2023-03-29T19:27:46.835Z,72.20
2023-03-29T19:30:14.385Z,72.27
2023-03-29T19:32:41.047Z,72.42
2023-03-29T19:35:09.610Z,72.29
2023-03-29T19:37:36.468Z,72.62
2023-03-29T19:40:06.409Z,72.37
2023-03-29T19:42:36.291Z,72.58
2023-03-29T19:45:03.949Z,72.45
2023-03-29T19:47:31.120Z,72.28
2023-03-29T19:49:59.066Z,72.61
2023-03-29T19:52:27.863Z,72.45
2023-03-29T19:54:55.892Z,72.57
2023-03-29T19:57:23.911Z,72.57
2023-03-29T19:59:50.932Z,72.45
2023-03-29T20:02:17.536Z,72.51
2023-03-29T20:04:44.055Z,72.36
2023-03-29T20:07:10.568Z,72.53
2023-03-29T20:09:37.715Z,72.58
2023-03-29T20:12:04.977Z,72.69
2023-03-29T20:14:31.643Z,72.55
2023-03-29T20:16:58.642Z,72.45
2023-03-29T20:19:25.411Z,72.37
2023-03-29T20:21:57.449Z,72.49
2023-03-29T20:24:25.295Z,72.50
2023-03-29T20:26:52.244Z,72.92
2023-03-29T20:29:18.929Z,73.15
2023-03-29T20:31:46.206Z,73.32
2023-03-29T20:34:13.167Z,73.49
2023-03-29T20:36:40.500Z,73.45
2023-03-29T20:39:08.235Z,73.70
2023-03-29T20:41:38.295Z,73.91
2023-03-29T20:44:05.767Z,73.86
2023-03-29T20:46:35.910Z,73.83
2023-03-29T20:49:04.661Z,73.89
2023-03-29T20:51:32.202Z,74.31
2023-03-29T20:54:04.761Z,74.38
2023-03-29T20:56:33.713Z,74.26
2023-03-29T20:59:00.547Z,74.23
2023-03-29T21:01:29.687Z,74.12
2023-03-29T21:03:56.571Z,73.95
2023-03-29T21:06:24.727Z,73.80
2023-03-29T21:08:52.554Z,73.66
2023-03-29T21:11:20.414Z,73.81
2023-03-29T21:13:47.545Z,73.78
2023-03-29T21:16:14.470Z,73.81
2023-03-29T21:18:41.812Z,73.78
2023-03-29T21:21:09.745Z,73.67
2023-03-29T21:23:37.335Z,73.65
2023-03-29T21:26:06.862Z,73.44
2023-03-29T21:28:34.020Z,73.52
2023-03-29T21:31:05.447Z,73.20
2023-03-29T21:33:33.065Z,73.23
2023-03-29T21:36:00.643Z,73.24
2023-03-29T21:38:28.180Z,73.49
2023-03-29T21:40:54.707Z,73.12
2023-03-29T21:43:21.500Z,73.14
2023-03-29T21:45:49.666Z,73.23
2023-03-29T21:48:17.823Z,73.33
2023-03-29T21:50:44.899Z,73.69
2023-03-29T21:53:11.887Z,73.64
2023-03-29T21:55:38.403Z,73.35
2023-03-29T21:58:05.465Z,73.44
2023-03-29T22:00:32.288Z,73.31
2023-03-29T22:02:59.393Z,73.47
2023-03-29T22:05:26.268Z,73.52
2023-03-29T22:07:53.020Z,73.81
2023-03-29T22:10:22.977Z,73.83
2023-03-29T22:12:50.989Z,73.77
2023-03-29T22:15:20.732Z,73.86
2023-03-29T22:17:47.935Z,73.56
2023-03-29T22:20:15.126Z,73.69
2023-03-29T22:22:52.663Z,73.86
2023-03-29T22:25:19.738Z,73.87
2023-03-29T22:27:47.661Z,73.97
2023-03-29T22:30:15.471Z,73.89
2023-03-29T22:32:42.535Z,73.92
2023-03-29T22:35:09.163Z,74.08
2023-03-29T22:37:44.007Z,74.14
2023-03-29T22:40:12.091Z,74.25
2023-03-29T22:42:38.900Z,74.30
2023-03-29T22:45:06.545Z,74.49
2023-03-29T22:47:33.172Z,74.44
2023-03-29T22:49:59.633Z,74.34
2023-03-29T22:52:26.200Z,74.23
2023-03-29T22:54:52.703Z,74.42
2023-03-29T22:57:19.225Z,74.59
2023-03-29T22:59:45.757Z,75.12
2023-03-29T23:02:12.233Z,74.88
2023-03-29T23:04:38.819Z,74.88
2023-03-29T23:07:06.481Z,74.89
2023-03-29T23:09:33.239Z,75.05
2023-03-29T23:12:01.435Z,75.30
2023-03-29T23:14:27.939Z,75.24
2023-03-29T23:16:54.453Z,75.42
2023-03-29T23:19:20.980Z,75.27
2023-03-29T23:21:47.444Z,75.44
2023-03-29T23:24:18.740Z,75.40
2023-03-29T23:26:45.581Z,75.32
2023-03-29T23:29:12.205Z,75.25
2023-03-29T23:31:38.800Z,75.53
2023-03-29T23:34:05.450Z,75.55
2023-03-29T23:36:32.021Z,75.27
2023-03-29T23:38:59.593Z,75.64
2023-03-29T23:41:28.296Z,75.46
2023-03-29T23:43:57.568Z,75.60
2023-03-29T23:46:24.657Z,75.67
2023-03-29T23:48:52.324Z,75.51
2023-03-29T23:51:22.920Z,75.53
2023-03-29T23:53:50.010Z,75.64
2023-03-29T23:56:16.525Z,75.45
2023-03-29T23:58:43.018Z,75.51
